DAUZ

In Aménas Airport

Aménas, Algeria
METAR DAUZ 201200Z 27020KT 2500 DRSA NSC 16/M02 Q1016
Observed Flight Rules
Jan-20 @ 12:00 UTC (an hour ago) Instrument Flight Rules
Wind Visibility Clouds Conditions
270° at 20 knots 2,494 meters
  • Clear skies
  • Low drifting
  • Sand
Temperatures Readings
Current 16°C / 61°F
Dewpoint -2°C / 28°F
Humidity 29%
Altimeter 30" Hg
Pressure 1016 hPa
Elevation 562
METAR DAUZ 201200Z 27020KT 2500 DRSA NSC 16/M02 Q1016
Observed Flight Rules
Jan-20 @ 12:00 UTC
(an hour ago)
IFR
Wind Visibility
270° at 20 knots 2,494 meters
Clouds
  • Clear skies
Conditions
  • Low drifting
  • Sand
Temperature Dewpoint
16°C / 61°F -2°C / 28°F
Humidity Altimeter Pressure
29% 30" Hg 1016 hPa